createdAt,value
2019-05-26T09:21:30.664Z,32.20
2019-05-26T09:26:35.218Z,31.00
2019-05-26T09:31:40.151Z,30.10
2019-05-26T09:36:44.620Z,29.60
2019-05-26T09:41:49.096Z,29.00
2019-05-26T09:46:53.618Z,27.90
2019-05-26T09:51:58.026Z,28.50
2019-05-26T09:57:02.607Z,28.20
2019-05-26T10:02:07.338Z,28.30
2019-05-26T10:07:15.648Z,28.30
2019-05-26T10:12:18.045Z,28.20
2019-05-26T10:17:23.334Z,28.30
2019-05-26T10:22:28.174Z,28.00
2019-05-26T10:27:32.848Z,28.00
2019-05-26T10:32:37.468Z,28.80
2019-05-26T10:37:41.972Z,28.20
2019-05-26T10:42:46.646Z,27.80
2019-05-26T10:47:51.242Z,28.20
2019-05-26T10:52:57.205Z,28.20
2019-05-26T10:58:01.916Z,28.20
2019-05-26T11:03:06.370Z,29.60
2019-05-26T11:08:10.971Z,28.30
2019-05-26T11:13:15.643Z,28.70
2019-05-26T11:18:20.107Z,28.30
2019-05-26T11:23:24.958Z,28.10
2019-05-26T11:28:29.572Z,28.20
2019-05-26T11:33:34.032Z,27.80
2019-05-26T11:38:38.634Z,27.70
2019-05-26T11:43:45.207Z,28.00
2019-05-26T11:48:50.759Z,28.40
2019-05-26T11:53:55.365Z,27.70
2019-05-26T11:59:00.142Z,27.80
2019-05-26T12:04:05.446Z,27.80
2019-05-26T12:09:10.355Z,27.90
2019-05-26T12:14:14.851Z,27.50
2019-05-26T12:19:19.429Z,27.70
2019-05-26T12:24:24.217Z,27.70
2019-05-26T12:29:28.718Z,27.70
2019-05-26T12:34:33.508Z,27.00
2019-05-26T12:39:38.230Z,27.00
2019-05-26T12:44:49.535Z,26.90
2019-05-26T12:49:49.102Z,26.80
2019-05-26T12:54:55.803Z,26.60
2019-05-26T13:00:02.455Z,26.20
2019-05-26T13:05:08.040Z,26.00
2019-05-26T13:10:12.594Z,25.70
2019-05-26T13:15:19.090Z,25.90
2019-05-26T13:20:24.916Z,25.90
2019-05-26T13:25:29.319Z,25.90
2019-05-26T13:30:34.785Z,25.60
2019-05-26T13:35:39.578Z,25.40
2019-05-26T13:40:44.016Z,25.50
2019-05-26T13:45:48.660Z,25.40
2019-05-26T13:50:53.117Z,25.20
2019-05-26T13:55:57.983Z,25.10
2019-05-26T14:01:02.472Z,24.90
2019-05-26T14:06:07.122Z,25.00
2019-05-26T14:11:11.656Z,24.30
2019-05-26T14:16:16.576Z,24.70
2019-05-26T14:21:22.242Z,24.10
2019-05-26T14:26:26.866Z,24.20
2019-05-26T14:31:31.249Z,24.20
2019-05-26T14:36:36.247Z,23.90
2019-05-26T14:41:40.787Z,23.60
2019-05-26T14:46:45.278Z,23.80
2019-05-26T14:51:50.014Z,23.70
2019-05-26T14:56:54.501Z,23.80
2019-05-26T15:01:59.281Z,23.90
2019-05-26T15:07:04.055Z,24.20
2019-05-26T15:12:08.677Z,23.60
2019-05-26T15:17:13.210Z,23.70
2019-05-26T15:22:17.651Z,23.40
2019-05-26T15:27:22.098Z,23.50
2019-05-26T15:32:27.012Z,23.50
2019-05-26T15:37:31.462Z,23.50
2019-05-26T15:42:36.402Z,23.90
2019-05-26T15:47:41.207Z,23.70
2019-05-26T15:52:45.674Z,23.70
2019-05-26T15:57:50.173Z,23.60
2019-05-26T16:02:54.966Z,23.60
2019-05-26T16:07:59.719Z,23.50
2019-05-26T16:13:05.445Z,23.60
2019-05-26T16:18:09.927Z,23.60
2019-05-26T16:23:14.411Z,23.60
2019-05-26T16:28:18.850Z,23.70
2019-05-26T16:33:23.379Z,23.60
2019-05-26T16:38:27.958Z,23.40
2019-05-26T16:43:32.402Z,23.90
2019-05-26T16:48:37.427Z,23.90
2019-05-26T16:53:42.294Z,23.60
2019-05-26T16:58:46.810Z,23.50
2019-05-26T17:03:51.707Z,23.10
2019-05-26T17:08:56.286Z,23.10
2019-05-26T17:14:00.875Z,23.10
2019-05-26T17:19:05.636Z,22.80
2019-05-26T17:24:10.142Z,22.80
2019-05-26T17:29:14.707Z,22.90
2019-05-26T17:34:19.294Z,22.90
2019-05-26T17:39:23.806Z,22.80
2019-05-26T17:44:28.453Z,22.60
2019-05-26T17:49:32.928Z,22.80
2019-05-26T17:54:37.409Z,23.00
2019-05-26T17:59:42.270Z,23.00
2019-05-26T18:04:46.702Z,22.90
2019-05-26T18:09:52.214Z,23.70
2019-05-26T18:14:56.749Z,23.20
2019-05-26T18:20:01.281Z,23.30
2019-05-26T18:25:06.466Z,23.60
2019-05-26T18:30:11.443Z,23.90
2019-05-26T18:35:16.039Z,24.00
2019-05-26T18:40:20.534Z,24.20
2019-05-26T18:45:25.046Z,24.20
2019-05-26T18:50:29.536Z,24.30
2019-05-26T18:55:34.362Z,24.40
2019-05-26T19:00:38.851Z,24.40
2019-05-26T19:05:43.404Z,24.50
2019-05-26T19:10:47.865Z,24.60
2019-05-26T19:15:52.843Z,24.70
2019-05-26T19:20:57.683Z,24.70
2019-05-26T19:26:02.274Z,24.90
2019-05-26T19:31:06.766Z,25.00
2019-05-26T19:36:11.685Z,25.00
2019-05-26T19:41:16.466Z,25.20
2019-05-26T19:46:20.939Z,25.20
2019-05-26T19:51:25.598Z,25.40
2019-05-26T19:56:30.054Z,25.40
2019-05-26T20:01:35.154Z,25.60
2019-05-26T20:06:43.577Z,25.90
2019-05-26T20:11:46.303Z,25.80
2019-05-26T20:16:51.615Z,26.10
2019-05-26T20:21:56.346Z,26.10
2019-05-26T20:27:00.914Z,26.30
2019-05-26T20:32:05.541Z,26.40
2019-05-26T20:37:10.827Z,26.60
2019-05-26T20:42:15.713Z,26.90
2019-05-26T20:47:20.350Z,26.90
2019-05-26T20:52:24.897Z,26.90
2019-05-26T20:57:29.426Z,26.70
2019-05-26T21:02:34.016Z,26.70
2019-05-26T21:07:38.503Z,26.50
2019-05-26T21:12:43.402Z,26.80
2019-05-26T21:17:47.836Z,27.00
2019-05-26T21:22:52.391Z,27.20
2019-05-26T21:27:56.834Z,26.60
2019-05-26T21:33:01.882Z,27.30
2019-05-26T21:38:06.403Z,27.30
2019-05-26T21:43:10.907Z,27.50
2019-05-26T21:48:15.328Z,27.50
2019-05-26T21:53:19.818Z,27.70
2019-05-26T21:58:24.440Z,27.80
2019-05-26T22:03:28.956Z,27.80
2019-05-26T22:08:33.611Z,27.80
2019-05-26T22:13:38.538Z,27.90
2019-05-26T22:18:43.130Z,28.00
2019-05-26T22:23:47.562Z,28.20
2019-05-26T22:28:51.978Z,28.10
2019-05-26T22:33:56.448Z,28.10
2019-05-26T22:39:00.962Z,28.20
2019-05-26T22:44:05.475Z,28.20
2019-05-26T22:49:10.090Z,28.90
2019-05-26T22:54:14.683Z,28.40
2019-05-26T22:59:19.330Z,28.40
2019-05-26T23:04:23.763Z,28.50
2019-05-26T23:09:28.310Z,28.70
2019-05-26T23:14:32.750Z,28.50
2019-05-26T23:19:37.323Z,28.90
2019-05-26T23:24:41.794Z,29.00
2019-05-26T23:29:46.454Z,29.10
2019-05-26T23:34:50.948Z,29.40
2019-05-26T23:39:55.693Z,29.60
2019-05-26T23:45:00.378Z,29.70
2019-05-26T23:50:05.317Z,29.70
2019-05-26T23:55:10.301Z,29.70
